sensor_id;sensor_type;location;lat;lon;timestamp;P1;durP1;ratioP1;P2;durP2;ratioP2
75542;SDS011;64129;53.508;10.476;2023-08-01T00:01:36;1.40;;;1.05;;
75542;SDS011;64129;53.508;10.476;2023-08-01T00:04:02;1.85;;;1.00;;
75542;SDS011;64129;53.508;10.476;2023-08-01T00:06:29;1.17;;;1.05;;
75542;SDS011;64129;53.508;10.476;2023-08-01T00:08:56;1.10;;;0.90;;
75542;SDS011;64129;53.508;10.476;2023-08-01T00:11:22;1.10;;;0.85;;
75542;SDS011;64129;53.508;10.476;2023-08-01T00:13:49;1.55;;;1.00;;
75542;SDS011;64129;53.508;10.476;2023-08-01T00:16:15;1.40;;;0.93;;
75542;SDS011;64129;53.508;10.476;2023-08-01T00:18:42;1.23;;;0.88;;
75542;SDS011;64129;53.508;10.476;2023-08-01T00:21:08;1.95;;;1.05;;
75542;SDS011;64129;53.508;10.476;2023-08-01T00:23:37;1.25;;;0.90;;
75542;SDS011;64129;53.508;10.476;2023-08-01T00:26:04;1.73;;;0.90;;
75542;SDS011;64129;53.508;10.476;2023-08-01T00:28:30;2.13;;;1.10;;
75542;SDS011;64129;53.508;10.476;2023-08-01T00:31:16;1.88;;;1.02;;
75542;SDS011;64129;53.508;10.476;2023-08-01T00:33:42;2.35;;;1.10;;
75542;SDS011;64129;53.508;10.476;2023-08-01T00:36:09;2.05;;;0.90;;
75542;SDS011;64129;53.508;10.476;2023-08-01T00:38:37;1.92;;;1.25;;
75542;SDS011;64129;53.508;10.476;2023-08-01T00:41:04;1.83;;;0.90;;
75542;SDS011;64129;53.508;10.476;2023-08-01T00:43:30;1.27;;;1.15;;
75542;SDS011;64129;53.508;10.476;2023-08-01T00:45:59;3.38;;;0.90;;
75542;SDS011;64129;53.508;10.476;2023-08-01T00:48:27;0.93;;;0.75;;
75542;SDS011;64129;53.508;10.476;2023-08-01T00:50:56;2.47;;;1.10;;
75542;SDS011;64129;53.508;10.476;2023-08-01T00:53:27;2.00;;;0.80;;
75542;SDS011;64129;53.508;10.476;2023-08-01T00:58:21;2.55;;;1.17;;
75542;SDS011;64129;53.508;10.476;2023-08-01T01:00:48;1.00;;;0.80;;
75542;SDS011;64129;53.508;10.476;2023-08-01T01:03:15;1.33;;;0.90;;
75542;SDS011;64129;53.508;10.476;2023-08-01T01:05:43;2.17;;;1.25;;
75542;SDS011;64129;53.508;10.476;2023-08-01T01:08:15;1.80;;;1.20;;
75542;SDS011;64129;53.508;10.476;2023-08-01T01:10:42;1.40;;;0.95;;
75542;SDS011;64129;53.508;10.476;2023-08-01T01:13:09;3.17;;;1.35;;
75542;SDS011;64129;53.508;10.476;2023-08-01T01:15:35;2.00;;;1.23;;
75542;SDS011;64129;53.508;10.476;2023-08-01T01:18:02;2.25;;;1.10;;
75542;SDS011;64129;53.508;10.476;2023-08-01T01:20:34;2.58;;;1.13;;
75542;SDS011;64129;53.508;10.476;2023-08-01T01:23:05;1.85;;;1.40;;
75542;SDS011;64129;53.508;10.476;2023-08-01T01:25:33;3.30;;;1.38;;
75542;SDS011;64129;53.508;10.476;2023-08-01T01:28:03;3.22;;;1.25;;
75542;SDS011;64129;53.508;10.476;2023-08-01T01:30:31;3.08;;;1.30;;
75542;SDS011;64129;53.508;10.476;2023-08-01T01:33:03;3.38;;;1.30;;
75542;SDS011;64129;53.508;10.476;2023-08-01T01:35:32;2.40;;;1.50;;
75542;SDS011;64129;53.508;10.476;2023-08-01T01:38:00;2.20;;;1.30;;
75542;SDS011;64129;53.508;10.476;2023-08-01T01:40:33;2.80;;;1.10;;
75542;SDS011;64129;53.508;10.476;2023-08-01T01:43:00;1.98;;;1.50;;
75542;SDS011;64129;53.508;10.476;2023-08-01T01:45:27;1.60;;;1.30;;
75542;SDS011;64129;53.508;10.476;2023-08-01T01:47:54;2.83;;;1.38;;
75542;SDS011;64129;53.508;10.476;2023-08-01T01:50:20;2.38;;;1.90;;
75542;SDS011;64129;53.508;10.476;2023-08-01T01:52:47;2.72;;;2.05;;
75542;SDS011;64129;53.508;10.476;2023-08-01T01:55:13;2.75;;;1.73;;
75542;SDS011;64129;53.508;10.476;2023-08-01T01:57:41;4.90;;;2.35;;
75542;SDS011;64129;53.508;10.476;2023-08-01T02:00:07;5.22;;;2.55;;
75542;SDS011;64129;53.508;10.476;2023-08-01T02:02:39;3.00;;;1.80;;
75542;SDS011;64129;53.508;10.476;2023-08-01T02:05:05;3.67;;;2.30;;
75542;SDS011;64129;53.508;10.476;2023-08-01T02:07:32;6.13;;;2.75;;
75542;SDS011;64129;53.508;10.476;2023-08-01T02:10:00;2.97;;;2.10;;
75542;SDS011;64129;53.508;10.476;2023-08-01T02:12:31;2.85;;;2.13;;
75542;SDS011;64129;53.508;10.476;2023-08-01T02:14:58;2.58;;;2.10;;
75542;SDS011;64129;53.508;10.476;2023-08-01T02:17:25;3.80;;;2.50;;
75542;SDS011;64129;53.508;10.476;2023-08-01T02:19:51;3.53;;;2.38;;
75542;SDS011;64129;53.508;10.476;2023-08-01T02:22:18;3.25;;;2.58;;
75542;SDS011;64129;53.508;10.476;2023-08-01T02:24:45;3.53;;;2.78;;
75542;SDS011;64129;53.508;10.476;2023-08-01T02:27:11;4.00;;;2.88;;
75542;SDS011;64129;53.508;10.476;2023-08-01T02:29:38;4.18;;;2.92;;
75542;SDS011;64129;53.508;10.476;2023-08-01T02:32:04;4.15;;;2.83;;
75542;SDS011;64129;53.508;10.476;2023-08-01T02:34:31;2.88;;;2.35;;
75542;SDS011;64129;53.508;10.476;2023-08-01T02:36:57;4.22;;;2.85;;
75542;SDS011;64129;53.508;10.476;2023-08-01T02:39:24;4.95;;;2.90;;
75542;SDS011;64129;53.508;10.476;2023-08-01T02:41:51;3.85;;;2.60;;
75542;SDS011;64129;53.508;10.476;2023-08-01T02:44:17;3.45;;;2.63;;
75542;SDS011;64129;53.508;10.476;2023-08-01T02:46:44;3.63;;;3.08;;
75542;SDS011;64129;53.508;10.476;2023-08-01T02:49:10;4.20;;;3.15;;
75542;SDS011;64129;53.508;10.476;2023-08-01T02:51:37;4.07;;;3.20;;
75542;SDS011;64129;53.508;10.476;2023-08-01T02:54:03;5.63;;;3.70;;
75542;SDS011;64129;53.508;10.476;2023-08-01T02:56:30;4.68;;;3.10;;
75542;SDS011;64129;53.508;10.476;2023-08-01T02:58:57;5.00;;;3.33;;
75542;SDS011;64129;53.508;10.476;2023-08-01T03:01:23;7.03;;;4.00;;
75542;SDS011;64129;53.508;10.476;2023-08-01T03:03:50;7.60;;;4.00;;
75542;SDS011;64129;53.508;10.476;2023-08-01T03:06:17;5.45;;;3.60;;
75542;SDS011;64129;53.508;10.476;2023-08-01T03:11:11;4.72;;;3.63;;
75542;SDS011;64129;53.508;10.476;2023-08-01T03:13:38;6.75;;;4.18;;
75542;SDS011;64129;53.508;10.476;2023-08-01T03:16:04;7.60;;;4.75;;
75542;SDS011;64129;53.508;10.476;2023-08-01T03:18:31;6.07;;;4.78;;
75542;SDS011;64129;53.508;10.476;2023-08-01T03:20:59;6.95;;;5.28;;
75542;SDS011;64129;53.508;10.476;2023-08-01T03:23:25;7.15;;;4.72;;
75542;SDS011;64129;53.508;10.476;2023-08-01T03:25:52;6.88;;;5.10;;
75542;SDS011;64129;53.508;10.476;2023-08-01T03:28:18;9.73;;;6.05;;
75542;SDS011;64129;53.508;10.476;2023-08-01T03:30:45;6.97;;;5.28;;
75542;SDS011;64129;53.508;10.476;2023-08-01T03:33:12;7.57;;;6.15;;
75542;SDS011;64129;53.508;10.476;2023-08-01T03:35:38;10.23;;;5.63;;
75542;SDS011;64129;53.508;10.476;2023-08-01T03:38:05;7.22;;;5.65;;
75542;SDS011;64129;53.508;10.476;2023-08-01T03:40:31;5.85;;;5.00;;
75542;SDS011;64129;53.508;10.476;2023-08-01T03:42:58;7.78;;;5.70;;
75542;SDS011;64129;53.508;10.476;2023-08-01T03:45:25;6.93;;;5.50;;
75542;SDS011;64129;53.508;10.476;2023-08-01T03:47:51;7.93;;;5.28;;
75542;SDS011;64129;53.508;10.476;2023-08-01T03:50:18;7.10;;;4.93;;
75542;SDS011;64129;53.508;10.476;2023-08-01T03:52:47;7.53;;;5.68;;
75542;SDS011;64129;53.508;10.476;2023-08-01T03:55:13;6.32;;;5.20;;
75542;SDS011;64129;53.508;10.476;2023-08-01T03:57:41;7.65;;;5.03;;
75542;SDS011;64129;53.508;10.476;2023-08-01T04:00:09;6.85;;;5.25;;
75542;SDS011;64129;53.508;10.476;2023-08-01T04:02:44;6.10;;;4.93;;
75542;SDS011;64129;53.508;10.476;2023-08-01T04:05:12;6.70;;;5.18;;
75542;SDS011;64129;53.508;10.476;2023-08-01T04:07:39;9.23;;;5.32;;
75542;SDS011;64129;53.508;10.476;2023-08-01T04:10:06;8.75;;;5.28;;
75542;SDS011;64129;53.508;10.476;2023-08-01T04:12:33;6.60;;;5.20;;
75542;SDS011;64129;53.508;10.476;2023-08-01T04:15:00;6.28;;;5.25;;
75542;SDS011;64129;53.508;10.476;2023-08-01T04:17:27;7.28;;;4.95;;
75542;SDS011;64129;53.508;10.476;2023-08-01T04:19:55;7.47;;;5.45;;
75542;SDS011;64129;53.508;10.476;2023-08-01T04:22:22;6.47;;;5.18;;
75542;SDS011;64129;53.508;10.476;2023-08-01T04:24:49;7.82;;;5.60;;
75542;SDS011;64129;53.508;10.476;2023-08-01T04:27:16;7.47;;;5.70;;
75542;SDS011;64129;53.508;10.476;2023-08-01T04:29:43;6.60;;;5.07;;
75542;SDS011;64129;53.508;10.476;2023-08-01T04:32:09;6.35;;;4.97;;
75542;SDS011;64129;53.508;10.476;2023-08-01T04:34:39;5.72;;;5.18;;
75542;SDS011;64129;53.508;10.476;2023-08-01T04:37:05;5.55;;;4.95;;
75542;SDS011;64129;53.508;10.476;2023-08-01T04:39:32;8.50;;;5.20;;
75542;SDS011;64129;53.508;10.476;2023-08-01T04:41:59;7.80;;;4.72;;
75542;SDS011;64129;53.508;10.476;2023-08-01T04:44:25;6.68;;;4.75;;
75542;SDS011;64129;53.508;10.476;2023-08-01T04:46:52;6.70;;;5.22;;
75542;SDS011;64129;53.508;10.476;2023-08-01T04:49:18;6.45;;;4.97;;
75542;SDS011;64129;53.508;10.476;2023-08-01T04:51:45;6.25;;;5.15;;
75542;SDS011;64129;53.508;10.476;2023-08-01T04:54:12;6.25;;;4.82;;
75542;SDS011;64129;53.508;10.476;2023-08-01T04:56:38;5.57;;;5.03;;
75542;SDS011;64129;53.508;10.476;2023-08-01T04:59:05;9.18;;;5.10;;
75542;SDS011;64129;53.508;10.476;2023-08-01T05:01:32;6.65;;;5.55;;
75542;SDS011;64129;53.508;10.476;2023-08-01T05:03:58;7.85;;;4.80;;
75542;SDS011;64129;53.508;10.476;2023-08-01T05:06:25;7.22;;;5.22;;
75542;SDS011;64129;53.508;10.476;2023-08-01T05:08:52;7.25;;;5.00;;
75542;SDS011;64129;53.508;10.476;2023-08-01T05:11:18;5.78;;;4.90;;
75542;SDS011;64129;53.508;10.476;2023-08-01T05:13:45;6.10;;;4.90;;
75542;SDS011;64129;53.508;10.476;2023-08-01T05:16:12;7.72;;;5.30;;
75542;SDS011;64129;53.508;10.476;2023-08-01T05:18:38;7.90;;;5.38;;
75542;SDS011;64129;53.508;10.476;2023-08-01T05:21:05;7.78;;;5.63;;
75542;SDS011;64129;53.508;10.476;2023-08-01T05:23:31;6.25;;;5.47;;
75542;SDS011;64129;53.508;10.476;2023-08-01T05:25:58;8.40;;;5.30;;
75542;SDS011;64129;53.508;10.476;2023-08-01T05:28:24;8.90;;;5.53;;
75542;SDS011;64129;53.508;10.476;2023-08-01T05:30:51;8.73;;;5.95;;
75542;SDS011;64129;53.508;10.476;2023-08-01T05:33:17;7.53;;;5.20;;
75542;SDS011;64129;53.508;10.476;2023-08-01T05:35:44;9.10;;;6.00;;
75542;SDS011;64129;53.508;10.476;2023-08-01T05:38:10;7.90;;;5.57;;
75542;SDS011;64129;53.508;10.476;2023-08-01T05:40:37;6.63;;;5.68;;
75542;SDS011;64129;53.508;10.476;2023-08-01T05:43:04;6.15;;;4.82;;
75542;SDS011;64129;53.508;10.476;2023-08-01T05:45:30;8.30;;;4.78;;
75542;SDS011;64129;53.508;10.476;2023-08-01T05:47:57;7.88;;;5.20;;
75542;SDS011;64129;53.508;10.476;2023-08-01T05:50:24;9.45;;;5.55;;
75542;SDS011;64129;53.508;10.476;2023-08-01T05:52:50;8.57;;;5.28;;
75542;SDS011;64129;53.508;10.476;2023-08-01T05:55:17;5.90;;;4.70;;
75542;SDS011;64129;53.508;10.476;2023-08-01T05:57:43;9.60;;;5.55;;
75542;SDS011;64129;53.508;10.476;2023-08-01T06:00:10;7.00;;;5.50;;
75542;SDS011;64129;53.508;10.476;2023-08-01T06:02:37;7.10;;;5.63;;
75542;SDS011;64129;53.508;10.476;2023-08-01T06:05:04;8.93;;;6.38;;
75542;SDS011;64129;53.508;10.476;2023-08-01T06:07:31;8.68;;;6.13;;
75542;SDS011;64129;53.508;10.476;2023-08-01T06:09:57;8.15;;;5.88;;
75542;SDS011;64129;53.508;10.476;2023-08-01T06:12:24;8.48;;;6.07;;
75542;SDS011;64129;53.508;10.476;2023-08-01T06:14:51;7.72;;;5.90;;
75542;SDS011;64129;53.508;10.476;2023-08-01T06:17:18;8.95;;;6.50;;
75542;SDS011;64129;53.508;10.476;2023-08-01T06:19:44;6.45;;;5.32;;
75542;SDS011;64129;53.508;10.476;2023-08-01T06:22:11;8.85;;;5.53;;
75542;SDS011;64129;53.508;10.476;2023-08-01T06:24:37;6.85;;;4.97;;
75542;SDS011;64129;53.508;10.476;2023-08-01T06:27:04;6.28;;;4.88;;
75542;SDS011;64129;53.508;10.476;2023-08-01T06:29:31;7.15;;;4.68;;
75542;SDS011;64129;53.508;10.476;2023-08-01T06:31:58;6.90;;;4.72;;
75542;SDS011;64129;53.508;10.476;2023-08-01T06:34:24;5.35;;;4.72;;
75542;SDS011;64129;53.508;10.476;2023-08-01T06:36:51;5.97;;;4.70;;
75542;SDS011;64129;53.508;10.476;2023-08-01T06:39:18;5.90;;;4.63;;
75542;SDS011;64129;53.508;10.476;2023-08-01T06:41:45;8.10;;;4.43;;
75542;SDS011;64129;53.508;10.476;2023-08-01T06:44:11;5.60;;;4.43;;
75542;SDS011;64129;53.508;10.476;2023-08-01T06:46:38;4.40;;;3.50;;
75542;SDS011;64129;53.508;10.476;2023-08-01T06:49:05;7.28;;;3.92;;
75542;SDS011;64129;53.508;10.476;2023-08-01T06:51:31;5.07;;;4.25;;
75542;SDS011;64129;53.508;10.476;2023-08-01T06:53:58;7.20;;;4.20;;
75542;SDS011;64129;53.508;10.476;2023-08-01T06:56:24;6.53;;;3.83;;
75542;SDS011;64129;53.508;10.476;2023-08-01T06:58:51;7.20;;;4.28;;
75542;SDS011;64129;53.508;10.476;2023-08-01T07:01:17;5.93;;;3.78;;
75542;SDS011;64129;53.508;10.476;2023-08-01T07:03:44;5.85;;;3.90;;
75542;SDS011;64129;53.508;10.476;2023-08-01T07:06:11;6.55;;;4.53;;
75542;SDS011;64129;53.508;10.476;2023-08-01T07:08:38;7.32;;;5.03;;
75542;SDS011;64129;53.508;10.476;2023-08-01T07:11:05;8.75;;;5.50;;
75542;SDS011;64129;53.508;10.476;2023-08-01T07:13:31;9.18;;;5.65;;
75542;SDS011;64129;53.508;10.476;2023-08-01T07:15:58;9.20;;;6.20;;
75542;SDS011;64129;53.508;10.476;2023-08-01T07:18:24;11.55;;;5.93;;
75542;SDS011;64129;53.508;10.476;2023-08-01T07:21:00;10.75;;;5.40;;
75542;SDS011;64129;53.508;10.476;2023-08-01T07:23:27;6.70;;;5.70;;
75542;SDS011;64129;53.508;10.476;2023-08-01T07:25:54;7.68;;;5.45;;
75542;SDS011;64129;53.508;10.476;2023-08-01T07:28:21;10.05;;;5.55;;
75542;SDS011;64129;53.508;10.476;2023-08-01T07:30:48;7.53;;;5.53;;
75542;SDS011;64129;53.508;10.476;2023-08-01T07:33:14;8.27;;;5.20;;
75542;SDS011;64129;53.508;10.476;2023-08-01T07:35:41;7.18;;;4.78;;
75542;SDS011;64129;53.508;10.476;2023-08-01T07:38:08;7.70;;;4.63;;
75542;SDS011;64129;53.508;10.476;2023-08-01T07:40:35;6.30;;;3.97;;
75542;SDS011;64129;53.508;10.476;2023-08-01T07:43:02;7.25;;;3.88;;
75542;SDS011;64129;53.508;10.476;2023-08-01T07:45:29;4.93;;;3.45;;
75542;SDS011;64129;53.508;10.476;2023-08-01T07:47:55;4.65;;;2.60;;
75542;SDS011;64129;53.508;10.476;2023-08-01T07:50:22;6.93;;;3.03;;
75542;SDS011;64129;53.508;10.476;2023-08-01T07:52:49;5.50;;;2.97;;
75542;SDS011;64129;53.508;10.476;2023-08-01T07:55:15;4.93;;;3.10;;
75542;SDS011;64129;53.508;10.476;2023-08-01T07:57:43;6.03;;;2.65;;
75542;SDS011;64129;53.508;10.476;2023-08-01T08:00:10;3.72;;;2.53;;
75542;SDS011;64129;53.508;10.476;2023-08-01T08:02:44;4.60;;;2.60;;
75542;SDS011;64129;53.508;10.476;2023-08-01T08:05:11;2.60;;;2.40;;
75542;SDS011;64129;53.508;10.476;2023-08-01T08:07:38;8.07;;;2.30;;
75542;SDS011;64129;53.508;10.476;2023-08-01T08:10:05;4.43;;;2.35;;
75542;SDS011;64129;53.508;10.476;2023-08-01T08:12:32;3.80;;;2.50;;
75542;SDS011;64129;53.508;10.476;2023-08-01T08:14:59;4.28;;;2.50;;
75542;SDS011;64129;53.508;10.476;2023-08-01T08:17:26;4.90;;;2.22;;
75542;SDS011;64129;53.508;10.476;2023-08-01T08:19:52;5.18;;;2.60;;
75542;SDS011;64129;53.508;10.476;2023-08-01T08:22:19;4.30;;;2.58;;
75542;SDS011;64129;53.508;10.476;2023-08-01T08:24:45;4.70;;;2.78;;
75542;SDS011;64129;53.508;10.476;2023-08-01T08:27:12;5.03;;;2.58;;
75542;SDS011;64129;53.508;10.476;2023-08-01T08:29:39;5.40;;;2.85;;
75542;SDS011;64129;53.508;10.476;2023-08-01T08:32:06;5.07;;;2.80;;
75542;SDS011;64129;53.508;10.476;2023-08-01T08:34:33;5.20;;;2.42;;
75542;SDS011;64129;53.508;10.476;2023-08-01T08:36:59;8.23;;;3.20;;
75542;SDS011;64129;53.508;10.476;2023-08-01T08:39:26;7.80;;;3.22;;
75542;SDS011;64129;53.508;10.476;2023-08-01T08:41:53;6.43;;;2.95;;
75542;SDS011;64129;53.508;10.476;2023-08-01T08:44:19;4.03;;;2.72;;
75542;SDS011;64129;53.508;10.476;2023-08-01T08:46:51;5.22;;;3.00;;
75542;SDS011;64129;53.508;10.476;2023-08-01T08:49:19;5.35;;;2.65;;
75542;SDS011;64129;53.508;10.476;2023-08-01T08:51:47;5.43;;;3.08;;
75542;SDS011;64129;53.508;10.476;2023-08-01T08:54:15;6.10;;;2.75;;
75542;SDS011;64129;53.508;10.476;2023-08-01T08:56:43;4.45;;;3.03;;
75542;SDS011;64129;53.508;10.476;2023-08-01T08:59:10;4.85;;;2.75;;
75542;SDS011;64129;53.508;10.476;2023-08-01T09:01:37;7.78;;;2.92;;
75542;SDS011;64129;53.508;10.476;2023-08-01T09:04:05;5.30;;;3.05;;
75542;SDS011;64129;53.508;10.476;2023-08-01T09:06:37;6.03;;;3.13;;
75542;SDS011;64129;53.508;10.476;2023-08-01T09:09:11;6.03;;;3.20;;
75542;SDS011;64129;53.508;10.476;2023-08-01T09:14:12;6.22;;;2.65;;
75542;SDS011;64129;53.508;10.476;2023-08-01T09:16:43;5.78;;;3.10;;
75542;SDS011;64129;53.508;10.476;2023-08-01T09:19:10;5.93;;;3.28;;
75542;SDS011;64129;53.508;10.476;2023-08-01T09:21:40;6.45;;;3.70;;
75542;SDS011;64129;53.508;10.476;2023-08-01T09:26:40;8.10;;;3.40;;
75542;SDS011;64129;53.508;10.476;2023-08-01T09:29:07;3.80;;;3.15;;
75542;SDS011;64129;53.508;10.476;2023-08-01T09:31:35;5.93;;;3.67;;
75542;SDS011;64129;53.508;10.476;2023-08-01T09:34:04;5.35;;;3.60;;
75542;SDS011;64129;53.508;10.476;2023-08-01T09:36:32;6.18;;;3.80;;
75542;SDS011;64129;53.508;10.476;2023-08-01T09:38:59;6.32;;;3.42;;
75542;SDS011;64129;53.508;10.476;2023-08-01T09:41:30;5.50;;;3.50;;
75542;SDS011;64129;53.508;10.476;2023-08-01T09:43:57;6.43;;;3.75;;
75542;SDS011;64129;53.508;10.476;2023-08-01T09:46:24;4.68;;;3.58;;
75542;SDS011;64129;53.508;10.476;2023-08-01T09:48:51;6.35;;;3.88;;
75542;SDS011;64129;53.508;10.476;2023-08-01T09:51:18;6.28;;;3.03;;
75542;SDS011;64129;53.508;10.476;2023-08-01T09:53:48;6.03;;;2.80;;
75542;SDS011;64129;53.508;10.476;2023-08-01T09:56:18;3.33;;;2.63;;
75542;SDS011;64129;53.508;10.476;2023-08-01T09:58:47;6.20;;;2.85;;
75542;SDS011;64129;53.508;10.476;2023-08-01T10:01:14;3.97;;;2.25;;
75542;SDS011;64129;53.508;10.476;2023-08-01T10:03:45;3.85;;;2.13;;
75542;SDS011;64129;53.508;10.476;2023-08-01T10:06:20;3.38;;;2.20;;
75542;SDS011;64129;53.508;10.476;2023-08-01T10:08:49;3.50;;;2.40;;
75542;SDS011;64129;53.508;10.476;2023-08-01T10:11:18;2.03;;;1.83;;
75542;SDS011;64129;53.508;10.476;2023-08-01T10:13:46;2.58;;;1.65;;
75542;SDS011;64129;53.508;10.476;2023-08-01T10:16:13;1.73;;;1.33;;
75542;SDS011;64129;53.508;10.476;2023-08-01T10:18:41;3.25;;;1.45;;
75542;SDS011;64129;53.508;10.476;2023-08-01T10:21:10;2.10;;;1.17;;
75542;SDS011;64129;53.508;10.476;2023-08-01T10:23:39;1.70;;;1.40;;
75542;SDS011;64129;53.508;10.476;2023-08-01T10:28:39;2.35;;;1.20;;
75542;SDS011;64129;53.508;10.476;2023-08-01T10:31:10;1.80;;;1.05;;
75542;SDS011;64129;53.508;10.476;2023-08-01T10:33:39;1.30;;;1.20;;
75542;SDS011;64129;53.508;10.476;2023-08-01T10:36:14;1.40;;;1.20;;
75542;SDS011;64129;53.508;10.476;2023-08-01T10:41:30;1.55;;;1.10;;
75542;SDS011;64129;53.508;10.476;2023-08-01T10:46:44;4.10;;;1.60;;
75542;SDS011;64129;53.508;10.476;2023-08-01T10:49:12;1.42;;;1.27;;
75542;SDS011;64129;53.508;10.476;2023-08-01T10:51:38;1.52;;;0.98;;
75542;SDS011;64129;53.508;10.476;2023-08-01T10:54:05;1.63;;;1.33;;
75542;SDS011;64129;53.508;10.476;2023-08-01T10:56:31;1.27;;;1.10;;
75542;SDS011;64129;53.508;10.476;2023-08-01T10:58:58;1.50;;;1.10;;
75542;SDS011;64129;53.508;10.476;2023-08-01T11:01:25;1.70;;;1.10;;
75542;SDS011;64129;53.508;10.476;2023-08-01T11:03:54;1.45;;;1.20;;
75542;SDS011;64129;53.508;10.476;2023-08-01T11:06:20;2.15;;;1.13;;
75542;SDS011;64129;53.508;10.476;2023-08-01T11:08:47;2.35;;;0.88;;
75542;SDS011;64129;53.508;10.476;2023-08-01T11:11:14;1.20;;;1.00;;
75542;SDS011;64129;53.508;10.476;2023-08-01T11:13:41;1.05;;;0.90;;
75542;SDS011;64129;53.508;10.476;2023-08-01T11:16:15;1.67;;;1.17;;
75542;SDS011;64129;53.508;10.476;2023-08-01T11:18:42;0.68;;;0.60;;
75542;SDS011;64129;53.508;10.476;2023-08-01T11:21:09;1.33;;;0.90;;
75542;SDS011;64129;53.508;10.476;2023-08-01T11:23:36;3.28;;;0.95;;
75542;SDS011;64129;53.508;10.476;2023-08-01T11:26:08;1.92;;;0.90;;
75542;SDS011;64129;53.508;10.476;2023-08-01T11:28:35;2.33;;;0.85;;
75542;SDS011;64129;53.508;10.476;2023-08-01T11:31:10;2.15;;;0.93;;
75542;SDS011;64129;53.508;10.476;2023-08-01T11:33:37;1.55;;;0.70;;
75542;SDS011;64129;53.508;10.476;2023-08-01T11:36:04;1.40;;;1.00;;
75542;SDS011;64129;53.508;10.476;2023-08-01T11:38:32;1.25;;;0.80;;
75542;SDS011;64129;53.508;10.476;2023-08-01T11:41:01;1.20;;;0.80;;
75542;SDS011;64129;53.508;10.476;2023-08-01T11:43:38;0.95;;;0.85;;
75542;SDS011;64129;53.508;10.476;2023-08-01T11:46:05;2.60;;;1.00;;
75542;SDS011;64129;53.508;10.476;2023-08-01T11:48:32;2.00;;;0.80;;
75542;SDS011;64129;53.508;10.476;2023-08-01T11:50:59;0.98;;;0.60;;
75542;SDS011;64129;53.508;10.476;2023-08-01T11:53:26;2.78;;;0.52;;
75542;SDS011;64129;53.508;10.476;2023-08-01T11:55:54;1.95;;;0.40;;
75542;SDS011;64129;53.508;10.476;2023-08-01T12:01:06;0.98;;;0.40;;
75542;SDS011;64129;53.508;10.476;2023-08-01T12:06:12;0.30;;;0.20;;
75542;SDS011;64129;53.508;10.476;2023-08-01T12:08:42;1.10;;;0.30;;
75542;SDS011;64129;53.508;10.476;2023-08-01T12:11:26;0.63;;;0.40;;
75542;SDS011;64129;53.508;10.476;2023-08-01T12:14:06;0.98;;;0.25;;
75542;SDS011;64129;53.508;10.476;2023-08-01T12:16:37;2.83;;;0.40;;
75542;SDS011;64129;53.508;10.476;2023-08-01T12:19:05;1.98;;;0.47;;
75542;SDS011;64129;53.508;10.476;2023-08-01T12:21:34;0.50;;;0.20;;
75542;SDS011;64129;53.508;10.476;2023-08-01T12:24:01;0.88;;;0.47;;
75542;SDS011;64129;53.508;10.476;2023-08-01T12:26:28;1.52;;;0.45;;
75542;SDS011;64129;53.508;10.476;2023-08-01T12:28:55;1.55;;;0.63;;
75542;SDS011;64129;53.508;10.476;2023-08-01T12:31:22;1.27;;;0.40;;
75542;SDS011;64129;53.508;10.476;2023-08-01T12:33:49;0.40;;;0.40;;
75542;SDS011;64129;53.508;10.476;2023-08-01T12:36:15;1.75;;;0.50;;
75542;SDS011;64129;53.508;10.476;2023-08-01T12:38:42;1.55;;;0.40;;
75542;SDS011;64129;53.508;10.476;2023-08-01T12:41:09;0.50;;;0.50;;
75542;SDS011;64129;53.508;10.476;2023-08-01T12:43:35;1.33;;;0.70;;
75542;SDS011;64129;53.508;10.476;2023-08-01T12:46:02;1.48;;;0.50;;
75542;SDS011;64129;53.508;10.476;2023-08-01T12:48:28;0.47;;;0.38;;
75542;SDS011;64129;53.508;10.476;2023-08-01T12:50:55;1.27;;;0.55;;
75542;SDS011;64129;53.508;10.476;2023-08-01T12:53:22;1.27;;;0.50;;
75542;SDS011;64129;53.508;10.476;2023-08-01T12:55:52;0.60;;;0.45;;
75542;SDS011;64129;53.508;10.476;2023-08-01T12:58:19;2.25;;;0.50;;
75542;SDS011;64129;53.508;10.476;2023-08-01T13:00:46;1.88;;;0.52;;
75542;SDS011;64129;53.508;10.476;2023-08-01T13:03:12;0.60;;;0.40;;
75542;SDS011;64129;53.508;10.476;2023-08-01T13:05:40;2.78;;;0.85;;
75542;SDS011;64129;53.508;10.476;2023-08-01T13:08:08;1.52;;;0.60;;
75542;SDS011;64129;53.508;10.476;2023-08-01T13:10:36;1.67;;;0.95;;
75542;SDS011;64129;53.508;10.476;2023-08-01T13:13:04;1.05;;;0.77;;
75542;SDS011;64129;53.508;10.476;2023-08-01T13:15:31;1.70;;;0.93;;
75542;SDS011;64129;53.508;10.476;2023-08-01T13:17:57;1.65;;;0.65;;
75542;SDS011;64129;53.508;10.476;2023-08-01T13:20:24;2.67;;;0.98;;
75542;SDS011;64129;53.508;10.476;2023-08-01T13:22:51;0.77;;;0.50;;
75542;SDS011;64129;53.508;10.476;2023-08-01T13:25:18;1.83;;;0.60;;
75542;SDS011;64129;53.508;10.476;2023-08-01T13:27:45;2.17;;;0.68;;
75542;SDS011;64129;53.508;10.476;2023-08-01T13:30:11;1.48;;;0.45;;
75542;SDS011;64129;53.508;10.476;2023-08-01T13:32:40;0.80;;;0.35;;
75542;SDS011;64129;53.508;10.476;2023-08-01T13:35:07;0.60;;;0.57;;
75542;SDS011;64129;53.508;10.476;2023-08-01T13:37:34;0.73;;;0.50;;
75542;SDS011;64129;53.508;10.476;2023-08-01T13:40:01;0.70;;;0.60;;
75542;SDS011;64129;53.508;10.476;2023-08-01T13:42:28;0.50;;;0.40;;
75542;SDS011;64129;53.508;10.476;2023-08-01T13:44:55;1.05;;;0.55;;
75542;SDS011;64129;53.508;10.476;2023-08-01T13:47:21;1.17;;;0.50;;
75542;SDS011;64129;53.508;10.476;2023-08-01T13:49:48;1.00;;;0.60;;
75542;SDS011;64129;53.508;10.476;2023-08-01T13:52:15;1.08;;;0.63;;
75542;SDS011;64129;53.508;10.476;2023-08-01T13:54:41;1.40;;;0.90;;
75542;SDS011;64129;53.508;10.476;2023-08-01T13:57:08;1.27;;;0.57;;
75542;SDS011;64129;53.508;10.476;2023-08-01T13:59:34;2.45;;;0.80;;
75542;SDS011;64129;53.508;10.476;2023-08-01T14:02:02;1.65;;;0.50;;
75542;SDS011;64129;53.508;10.476;2023-08-01T14:04:29;1.20;;;1.00;;
75542;SDS011;64129;53.508;10.476;2023-08-01T14:06:56;1.23;;;0.85;;
75542;SDS011;64129;53.508;10.476;2023-08-01T14:09:22;2.60;;;1.20;;
75542;SDS011;64129;53.508;10.476;2023-08-01T14:11:49;1.58;;;0.70;;
75542;SDS011;64129;53.508;10.476;2023-08-01T14:14:15;1.40;;;0.70;;
75542;SDS011;64129;53.508;10.476;2023-08-01T14:16:44;1.25;;;0.68;;
75542;SDS011;64129;53.508;10.476;2023-08-01T14:19:11;1.58;;;0.60;;
75542;SDS011;64129;53.508;10.476;2023-08-01T14:21:37;1.20;;;0.80;;
75542;SDS011;64129;53.508;10.476;2023-08-01T14:24:04;2.00;;;0.70;;
75542;SDS011;64129;53.508;10.476;2023-08-01T14:26:30;1.10;;;0.60;;
75542;SDS011;64129;53.508;10.476;2023-08-01T14:28:57;0.82;;;0.65;;
75542;SDS011;64129;53.508;10.476;2023-08-01T14:31:23;2.25;;;0.98;;
75542;SDS011;64129;53.508;10.476;2023-08-01T14:33:50;1.55;;;0.85;;
75542;SDS011;64129;53.508;10.476;2023-08-01T14:36:16;2.53;;;0.90;;
75542;SDS011;64129;53.508;10.476;2023-08-01T14:38:43;1.52;;;0.55;;
75542;SDS011;64129;53.508;10.476;2023-08-01T14:41:09;2.60;;;0.85;;
75542;SDS011;64129;53.508;10.476;2023-08-01T14:43:40;1.15;;;0.77;;
75542;SDS011;64129;53.508;10.476;2023-08-01T14:46:06;0.82;;;0.50;;
75542;SDS011;64129;53.508;10.476;2023-08-01T14:48:33;0.70;;;0.40;;
75542;SDS011;64129;53.508;10.476;2023-08-01T14:50:59;0.93;;;0.82;;
75542;SDS011;64129;53.508;10.476;2023-08-01T14:53:26;1.52;;;0.80;;
75542;SDS011;64129;53.508;10.476;2023-08-01T14:55:56;3.28;;;0.70;;
75542;SDS011;64129;53.508;10.476;2023-08-01T14:58:24;1.02;;;0.90;;